Time;durP1;ratioP1;P1;durP2;ratioP2;P2;SDS_P1;SDS_P2;PMS_P1;PMS_P2;Temp;Humidity;BMP_temperature;BMP_pressure;BME280_temperature;BME280_humidity;BME280_pressure;Samples;Min_cycle;Max_cycle;Signal;HPM_P1;HPM_P2
2022/03/13 00:04:36;;;;;;;9.82;8.77;;;;;;;9.16;28.23;100244.28;10353938;28;20132;-61
2022/03/13 00:09:38;;;;;;;11.68;9.55;;;;;;;9.12;28.33;100233.03;10350733;28;20054;-60
2022/03/13 00:14:43;;;;;;;9.77;8.70;;;;;;;9.05;28.42;100241.56;10349105;28;20133;-61
2022/03/13 00:19:46;;;;;;;10.32;9.15;;;;;;;9.01;28.62;100244.44;10351605;28;20053;-61
2022/03/13 00:24:47;;;;;;;11.18;9.55;;;;;;;8.91;28.89;100240.78;10349873;28;20523;-63
2022/03/13 00:29:51;;;;;;;11.20;9.57;;;;;;;8.83;28.88;100232.53;10351316;28;20050;-61
2022/03/13 00:34:53;;;;;;;11.30;10.02;;;;;;;8.70;29.14;100229.94;10349937;28;20081;-61
2022/03/13 00:39:56;;;;;;;11.43;9.30;;;;;;;8.80;29.53;100235.44;10353855;28;20153;-62
2022/03/13 00:44:58;;;;;;;13.82;11.10;;;;;;;8.61;29.96;100234.09;10357069;28;20046;-62
2022/03/13 00:50:00;;;;;;;12.43;10.68;;;;;;;8.58;29.94;100213.09;10355446;28;20049;-60
2022/03/13 00:55:01;;;;;;;11.18;10.07;;;;;;;8.45;29.80;100220.25;10354867;28;20049;-61
2022/03/13 01:00:04;;;;;;;11.30;10.10;;;;;;;8.49;30.20;100225.22;10353183;28;20532;-63
2022/03/13 01:05:11;;;;;;;12.05;10.82;;;;;;;8.52;30.38;100224.16;10357524;28;20208;-62
2022/03/13 01:10:12;;;;;;;11.32;10.02;;;;;;;8.31;30.56;100205.28;10355111;28;20052;-62
2022/03/13 01:15:14;;;;;;;13.25;11.85;;;;;;;8.37;30.47;100231.38;10366458;28;20164;-61
2022/03/13 01:20:19;;;;;;;12.02;10.82;;;;;;;8.38;30.49;100217.16;10361855;28;20050;-63
2022/03/13 01:25:20;;;;;;;11.82;10.63;;;;;;;8.38;30.32;100219.81;10371463;28;20061;-67
2022/03/13 01:30:21;;;;;;;11.73;10.57;;;;;;;8.20;30.70;100218.50;10366077;28;20061;-61
2022/03/13 01:35:24;;;;;;;13.15;10.50;;;;;;;8.13;30.96;100191.56;10364205;28;20049;-61
2022/03/13 01:40:25;;;;;;;11.25;10.05;;;;;;;8.18;30.65;100188.56;10358261;28;20060;-62
2022/03/13 01:45:27;;;;;;;12.35;9.95;;;;;;;8.14;30.92;100215.31;10362432;28;20076;-61
2022/03/13 01:50:30;;;;;;;12.48;11.27;;;;;;;8.01;31.44;100187.97;10364404;28;20158;-60
2022/03/13 01:55:31;;;;;;;13.30;11.30;;;;;;;8.15;31.08;100210.84;10357213;28;21370;-61
2022/03/13 02:00:32;;;;;;;11.57;10.27;;;;;;;8.00;31.11;100181.00;10343528;28;20049;-60
2022/03/13 02:05:35;;;;;;;11.52;10.20;;;;;;;8.16;31.33;100207.25;10346130;28;20077;-61
2022/03/13 02:10:37;;;;;;;10.55;9.30;;;;;;;8.19;31.40;100195.56;10346158;28;20053;-60
2022/03/13 02:15:39;;;;;;;11.13;10.02;;;;;;;8.08;31.70;100193.69;10357546;28;20050;-60
2022/03/13 02:20:43;;;;;;;12.13;10.95;;;;;;;7.79;33.26;100180.66;10351800;28;20049;-59
2022/03/13 02:25:48;;;;;;;11.10;10.10;;;;;;;7.62;33.75;100176.56;10353296;28;20052;-60
2022/03/13 02:30:52;;;;;;;13.40;12.02;;;;;;;7.59;33.68;100179.41;10356416;28;20058;-59
2022/03/13 02:36:03;;;;;;;13.20;11.85;;;;;;;7.56;34.20;100180.47;10352943;28;20461;-60
2022/03/13 02:41:05;;;;;;;14.18;12.45;;;;;;;7.51;34.53;100179.13;10353778;28;20129;-59
2022/03/13 02:46:18;;;;;;;13.18;11.88;;;;;;;7.33;34.52;100160.88;10352550;28;20128;-60
2022/03/13 02:51:19;;;;;;;14.10;11.23;;;;;;;7.38;34.25;100179.09;10353837;28;20511;-60
2022/03/13 02:56:21;;;;;;;12.88;11.07;;;;;;;7.34;34.16;100173.19;10353686;28;20647;-60
2022/03/13 03:01:23;;;;;;;11.45;10.25;;;;;;;7.23;33.38;100154.50;10355722;28;20071;-60
2022/03/13 03:06:28;;;;;;;12.35;10.65;;;;;;;7.34;32.78;100173.19;10355238;28;20049;-61
2022/03/13 03:11:35;;;;;;;12.73;9.83;;;;;;;7.26;32.51;100167.53;10359292;28;20049;-60
2022/03/13 03:16:36;;;;;;;12.43;9.77;;;;;;;7.26;32.15;100160.44;10350327;28;20276;-59
2022/03/13 03:21:38;;;;;;;11.35;9.57;;;;;;;7.39;31.63;100172.84;10346251;28;20061;-60
2022/03/13 03:26:40;;;;;;;10.75;9.70;;;;;;;7.31;31.94;100167.22;10352860;28;20086;-60
2022/03/13 03:31:44;;;;;;;12.07;9.82;;;;;;;7.37;31.80;100165.03;10355145;28;20506;-59
2022/03/13 03:36:52;;;;;;;13.05;9.60;;;;;;;7.33;31.83;100176.75;10352665;28;20518;-60
2022/03/13 03:41:53;;;;;;;10.88;9.52;;;;;;;7.44;32.49;100179.50;10351318;28;20049;-60
2022/03/13 03:46:55;;;;;;;10.45;9.10;;;;;;;7.48;32.39;100169.56;10353229;28;20050;-60
2022/03/13 03:51:56;;;;;;;11.65;9.77;;;;;;;7.37;32.66;100170.31;10349738;28;20061;-60
2022/03/13 03:56:58;;;;;;;11.23;9.95;;;;;;;7.34;32.68;100157.28;10353089;28;20138;-59
2022/03/13 04:02:00;;;;;;;11.57;10.38;;;;;;;7.29;32.84;100162.03;10353626;28;20722;-60
2022/03/13 04:07:01;;;;;;;12.68;9.80;;;;;;;7.29;32.92;100167.31;10348800;28;20050;-61
2022/03/13 04:12:07;;;;;;;11.00;9.90;;;;;;;7.29;32.71;100177.09;10350086;28;20054;-60
2022/03/13 04:17:09;;;;;;;11.57;10.32;;;;;;;7.19;32.92;100179.50;10352193;28;20041;-63
2022/03/13 04:22:11;;;;;;;10.57;9.45;;;;;;;7.20;33.53;100171.44;10352973;28;20419;-64
2022/03/13 04:27:13;;;;;;;12.63;10.23;;;;;;;7.20;32.94;100174.09;10355014;28;20057;-60
2022/03/13 04:32:23;;;;;;;10.75;9.63;;;;;;;7.08;33.08;100182.88;10349088;28;20054;-60
2022/03/13 04:37:25;;;;;;;11.13;9.93;;;;;;;7.07;32.89;100176.72;10351625;28;20041;-59
2022/03/13 04:42:26;;;;;;;9.48;8.43;;;;;;;7.02;32.59;100184.13;10352586;28;20772;-60
2022/03/13 04:47:31;;;;;;;9.88;8.93;;;;;;;7.02;32.97;100194.69;10353647;28;23950;-59
2022/03/13 04:52:32;;;;;;;9.13;8.18;;;;;;;6.98;32.46;100195.88;10359436;28;20140;-60
2022/03/13 04:57:34;;;;;;;9.65;8.02;;;;;;;6.82;32.50;100172.22;10354928;28;20053;-61
2022/03/13 05:02:36;;;;;;;8.82;8.00;;;;;;;6.90;32.14;100195.53;10353125;28;20431;-60
2022/03/13 05:07:38;;;;;;;9.68;8.43;;;;;;;6.88;32.08;100181.56;10353887;28;20784;-59
2022/03/13 05:12:39;;;;;;;9.63;8.65;;;;;;;6.90;31.88;100195.53;10358358;28;20562;-60
2022/03/13 05:17:41;;;;;;;9.43;8.52;;;;;;;6.83;32.04;100199.50;10355174;28;20171;-61
2022/03/13 05:22:42;;;;;;;9.50;8.07;;;;;;;6.75;31.58;100200.03;10357831;28;20050;-61
2022/03/13 05:27:44;;;;;;;9.32;8.40;;;;;;;6.77;31.76;100206.09;10359611;28;20063;-60
2022/03/13 05:32:46;;;;;;;10.45;7.88;;;;;;;6.69;31.96;100208.38;10360894;28;20042;-59
2022/03/13 05:37:48;;;;;;;10.18;8.32;;;;;;;6.65;31.46;100207.72;10357902;28;20042;-60
2022/03/13 05:42:54;;;;;;;11.52;8.80;;;;;;;6.63;31.68;100214.06;10357870;28;20057;-59
2022/03/13 05:48:10;;;;;;;9.07;8.18;;;;;;;6.59;31.46;100218.72;10354591;28;20034;-60
2022/03/13 05:53:12;;;;;;;10.48;8.90;;;;;;;6.54;31.42;100234.00;10358533;28;20191;-60
2022/03/13 05:58:14;;;;;;;10.05;9.05;;;;;;;6.47;31.68;100224.75;10355711;28;20161;-60
2022/03/13 06:03:16;;;;;;;12.32;8.48;;;;;;;6.40;31.66;100234.06;10333775;28;20496;-61
2022/03/13 06:08:18;;;;;;;9.52;8.50;;;;;;;6.40;31.79;100244.63;10343027;28;20049;-62
2022/03/13 06:13:22;;;;;;;11.00;9.43;;;;;;;6.48;32.09;100250.25;10343856;28;20511;-60
2022/03/13 06:18:25;;;;;;;8.60;7.80;;;;;;;6.43;31.74;100247.06;10338733;28;20540;-59
2022/03/13 06:23:28;;;;;;;8.93;8.02;;;;;;;6.55;31.71;100260.34;10339512;28;20165;-60
2022/03/13 06:28:30;;;;;;;8.73;7.82;;;;;;;6.65;31.09;100254.47;10338991;28;20057;-60
2022/03/13 06:33:32;;;;;;;8.82;7.93;;;;;;;6.76;31.07;100256.44;10342640;28;20049;-61
2022/03/13 06:38:33;;;;;;;11.10;8.15;;;;;;;6.90;30.17;100270.50;10343068;28;20065;-60
2022/03/13 06:43:35;;;;;;;8.60;6.85;;;;;;;6.99;29.75;100278.75;10337928;28;20061;-62
2022/03/13 06:48:36;;;;;;;8.90;8.00;;;;;;;7.14;29.38;100288.34;10335086;28;20052;-59
2022/03/13 06:53:38;;;;;;;9.73;7.85;;;;;;;7.36;29.33;100279.84;10336805;28;20054;-59
2022/03/13 06:58:41;;;;;;;8.50;7.57;;;;;;;7.41;28.56;100284.81;10340142;28;20742;-61
2022/03/13 07:03:43;;;;;;;9.40;7.78;;;;;;;7.44;28.46;100293.41;10335485;28;20049;-60
2022/03/13 07:08:44;;;;;;;8.80;7.82;;;;;;;7.43;28.59;100282.91;10323915;28;20053;-61
2022/03/13 07:13:46;;;;;;;8.82;7.70;;;;;;;7.63;29.01;100273.63;10336096;28;20056;-58
2022/03/13 07:18:48;;;;;;;9.73;7.68;;;;;;;7.77;28.45;100281.47;10340485;28;20064;-62
2022/03/13 07:23:49;;;;;;;8.85;7.70;;;;;;;7.85;28.71;100275.69;10335310;28;20121;-63
2022/03/13 07:28:50;;;;;;;8.85;7.95;;;;;;;7.96;28.54;100277.56;10337285;28;20064;-62
2022/03/13 07:33:52;;;;;;;9.77;8.57;;;;;;;8.05;28.10;100271.63;10336145;28;20283;-58
2022/03/13 07:38:53;;;;;;;8.88;7.97;;;;;;;8.25;27.85;100295.91;10332058;28;20129;-60
2022/03/13 07:43:55;;;;;;;9.20;8.20;;;;;;;8.43;26.88;100291.09;10338964;28;20068;-61
2022/03/13 07:48:56;;;;;;;9.48;8.52;;;;;;;8.41;26.94;100285.91;10343309;28;20160;-61
2022/03/13 07:53:58;;;;;;;7.80;7.00;;;;;;;8.74;26.25;100292.44;10367637;28;20053;-61
2022/03/13 07:58:59;;;;;;;9.38;8.38;;;;;;;8.96;26.29;100283.78;10342774;28;20100;-60
2022/03/13 08:04:04;;;;;;;10.25;8.13;;;;;;;8.95;25.75;100241.41;10335495;28;20060;-62
2022/03/13 08:09:07;;;;;;;11.82;7.57;;;;;;;9.46;24.90;100283.63;10331825;28;20568;-60
2022/03/13 08:14:08;;;;;;;8.10;7.40;;;;;;;9.69;24.22;100273.06;10332091;28;20165;-60
2022/03/13 08:19:10;;;;;;;10.35;7.70;;;;;;;9.45;24.38;100276.63;10335321;28;20049;-59
2022/03/13 08:24:15;;;;;;;9.73;8.13;;;;;;;9.51;24.25;100285.94;10344095;28;20057;-60
2022/03/13 08:29:16;;;;;;;9.00;8.10;;;;;;;9.97;24.65;100286.88;10341321;28;20183;-60
2022/03/13 08:34:19;;;;;;;12.05;8.43;;;;;;;10.31;24.03;100292.22;10348514;28;20057;-61
2022/03/13 08:39:20;;;;;;;10.40;7.57;;;;;;;10.55;24.01;100287.66;10357386;28;20082;-59
2022/03/13 08:44:22;;;;;;;9.75;7.93;;;;;;;10.81;23.57;100282.06;10353369;28;20064;-59
2022/03/13 08:49:24;;;;;;;9.25;7.63;;;;;;;11.15;23.24;100265.97;10342760;28;20049;-60
2022/03/13 08:54:26;;;;;;;7.68;6.85;;;;;;;11.31;22.54;100262.88;10346147;28;20547;-60
2022/03/13 08:59:28;;;;;;;9.65;7.43;;;;;;;11.41;22.74;100261.13;10343534;28;20061;-61
2022/03/13 09:04:29;;;;;;;8.07;7.05;;;;;;;11.76;22.24;100254.63;10342910;28;20730;-60
2022/03/13 09:09:31;;;;;;;7.93;7.13;;;;;;;12.13;21.72;100259.50;10341397;28;20484;-61
2022/03/13 09:14:39;;;;;;;8.35;6.55;;;;;;;12.47;21.80;100251.19;10341868;28;20150;-59
2022/03/13 09:19:41;;;;;;;7.93;7.13;;;;;;;12.46;21.53;100257.53;10339620;28;20074;-61
2022/03/13 09:24:42;;;;;;;8.57;6.85;;;;;;;12.42;21.84;100265.94;10337791;28;20182;-60
2022/03/13 09:29:44;;;;;;;9.00;6.65;;;;;;;13.00;21.33;100268.75;10333459;28;20058;-61
2022/03/13 09:34:45;;;;;;;7.93;7.18;;;;;;;13.60;20.53;100259.75;10336203;28;20053;-60
2022/03/13 09:39:47;;;;;;;8.50;6.78;;;;;;;13.90;20.52;100250.69;10339764;28;20536;-60
2022/03/13 09:44:48;;;;;;;7.90;7.20;;;;;;;14.14;19.86;100249.31;10338397;28;20160;-60
2022/03/13 09:49:51;;;;;;;7.40;6.70;;;;;;;14.63;19.58;100228.53;10335051;28;20574;-61
2022/03/13 09:54:52;;;;;;;8.38;7.47;;;;;;;15.20;19.34;100241.66;10335180;28;20100;-61
2022/03/13 09:59:53;;;;;;;9.43;8.10;;;;;;;15.65;18.70;100247.91;10342305;28;20076;-63
2022/03/13 10:04:55;;;;;;;8.43;7.57;;;;;;;16.05;18.06;100251.03;10339717;28;20741;-60
2022/03/13 10:10:12;;;;;;;8.27;7.47;;;;;;;16.68;17.58;100243.56;10341400;28;20061;-60
2022/03/13 10:15:14;;;;;;;7.78;6.65;;;;;;;17.91;16.58;100229.38;10334816;28;20656;-59
2022/03/13 10:20:23;;;;;;;8.80;6.97;;;;;;;20.37;14.16;100223.22;10345735;28;20050;-60
2022/03/13 10:25:35;;;;;;;7.75;6.70;;;;;;;22.49;12.33;100216.31;10345587;28;20073;-59
2022/03/13 10:30:37;;;;;;;6.63;6.03;;;;;;;21.78;12.93;100195.69;10339609;28;20132;-62
2022/03/13 10:35:39;;;;;;;6.70;6.07;;;;;;;20.86;13.25;100205.53;10342173;28;20061;-60
2022/03/13 10:40:41;;;;;;;7.13;6.43;;;;;;;21.14;13.24;100203.72;10338798;28;20582;-59
2022/03/13 10:45:47;;;;;;;6.93;6.32;;;;;;;22.11;12.82;100195.88;10340043;28;20499;-59
2022/03/13 10:50:51;;;;;;;8.93;7.03;;;;;;;24.05;11.52;100201.66;10336297;28;20682;-59
2022/03/13 10:56:09;;;;;;;7.47;6.78;;;;;;;28.09;9.29;100206.97;10335169;28;20087;-60
2022/03/13 11:01:17;;;;;;;7.25;6.65;;;;;;;29.74;8.17;100209.94;10336254;28;20068;-60
2022/03/13 11:06:22;;;;;;;7.05;6.32;;;;;;;30.21;7.85;100206.78;10329291;28;20050;-60
2022/03/13 11:11:28;;;;;;;6.80;6.22;;;;;;;30.56;7.72;100177.28;10337224;28;20917;-60
2022/03/13 11:16:31;;;;;;;6.53;6.03;;;;;;;31.73;6.95;100191.22;10333611;28;20176;-62
2022/03/13 11:21:33;;;;;;;7.00;6.40;;;;;;;32.56;6.48;100175.06;10336015;28;20427;-59
2022/03/13 11:26:39;;;;;;;6.53;5.82;;;;;;;33.16;6.53;100164.41;10339249;28;20124;-66
2022/03/13 11:31:42;;;;;;;6.88;6.35;;;;;;;33.88;6.03;100171.78;10337652;28;20147;-62
2022/03/13 11:36:44;;;;;;;6.95;6.25;;;;;;;34.76;5.59;100159.19;10331204;28;20141;-61
2022/03/13 11:41:47;;;;;;;6.72;6.07;;;;;;;36.13;4.97;100157.34;10337573;28;20147;-62
2022/03/13 11:46:50;;;;;;;6.63;6.03;;;;;;;36.55;5.09;100154.84;10334060;28;20057;-59
2022/03/13 11:52:12;;;;;;;7.00;6.05;;;;;;;37.01;5.03;100147.75;10335675;28;20410;-64
2022/03/13 11:57:22;;;;;;;6.53;5.72;;;;;;;36.94;4.72;100132.31;10336104;28;20102;-61
2022/03/13 12:02:40;;;;;;;6.90;6.30;;;;;;;38.31;4.58;100134.69;10338165;28;20469;-61
2022/03/13 12:07:55;;;;;;;6.88;6.38;;;;;;;36.76;4.54;100113.78;10331590;28;20716;-62
2022/03/13 12:13:04;;;;;;;6.47;5.82;;;;;;;36.96;4.33;100102.34;10338378;28;20055;-63
2022/03/13 12:18:25;;;;;;;6.45;5.95;;;;;;;37.23;4.55;100094.38;10335183;28;20587;-62
2022/03/13 12:23:33;;;;;;;7.28;6.68;;;;;;;38.05;4.52;100083.59;10332586;28;20053;-62
2022/03/13 12:28:35;;;;;;;7.00;6.30;;;;;;;38.63;4.44;100080.03;10345124;28;20053;-61
2022/03/13 12:33:39;;;;;;;7.18;6.15;;;;;;;39.68;3.76;100082.56;10334664;28;20057;-60
2022/03/13 12:38:43;;;;;;;6.57;6.07;;;;;;;40.09;3.79;100076.59;10338287;28;20191;-61
2022/03/13 12:43:49;;;;;;;7.03;6.50;;;;;;;40.00;3.48;100061.03;10334122;28;20053;-61
2022/03/13 12:48:59;;;;;;;6.95;6.35;;;;;;;40.15;3.45;100054.97;10331081;28;20083;-62
2022/03/13 12:54:03;;;;;;;6.85;6.25;;;;;;;39.07;3.79;100047.72;10336799;28;20042;-61
2022/03/13 12:59:04;;;;;;;6.40;5.80;;;;;;;38.54;3.84;100034.66;10339835;28;20115;-61
2022/03/13 13:04:13;;;;;;;6.88;6.20;;;;;;;38.59;4.45;100023.41;10337695;28;20057;-61
2022/03/13 13:09:28;;;;;;;7.78;6.85;;;;;;;38.84;4.13;100029.44;10340528;28;21790;-61
2022/03/13 13:14:31;;;;;;;7.28;6.70;;;;;;;38.02;4.75;100012.81;10343732;28;20050;-61
2022/03/13 13:19:44;;;;;;;8.52;7.72;;;;;;;37.40;4.98;100016.09;10345208;28;20049;-60
2022/03/13 13:24:50;;;;;;;8.52;7.72;;;;;;;36.38;5.16;100019.59;10340017;28;20591;-62
2022/03/13 13:29:52;;;;;;;8.48;7.72;;;;;;;36.80;5.04;100015.84;10341126;28;20064;-64
2022/03/13 13:35:10;;;;;;;9.25;8.55;;;;;;;34.74;6.38;100016.84;10344584;28;20065;-62
2022/03/13 13:40:12;;;;;;;9.27;8.25;;;;;;;36.03;5.66;100017.06;10343349;28;20100;-63
2022/03/13 13:45:28;;;;;;;9.57;8.68;;;;;;;36.89;5.09;100002.09;10344950;28;20458;-63
2022/03/13 13:50:30;;;;;;;10.07;9.25;;;;;;;34.93;5.79;100005.94;10344382;28;20053;-63
2022/03/13 13:55:37;;;;;;;10.07;9.13;;;;;;;34.21;6.42;99992.69;10345706;28;20050;-63
2022/03/13 14:00:39;;;;;;;10.35;9.45;;;;;;;32.17;7.54;100007.56;10340811;28;20053;-62
2022/03/13 14:05:41;;;;;;;10.90;10.00;;;;;;;30.75;8.73;99996.47;10338438;28;21072;-61
2022/03/13 14:10:55;;;;;;;10.10;9.20;;;;;;;30.86;8.36;99989.94;10340805;28;20056;-62
2022/03/13 14:15:56;;;;;;;10.25;9.38;;;;;;;31.59;8.11;99983.75;10336853;28;20056;-61
2022/03/13 14:20:57;;;;;;;10.77;9.73;;;;;;;32.42;7.65;99991.06;10338365;28;20053;-62
2022/03/13 14:25:59;;;;;;;10.05;9.25;;;;;;;30.02;8.69;99991.41;10338397;28;20056;-62
2022/03/13 14:31:00;;;;;;;10.43;9.52;;;;;;;27.68;10.20;99992.75;10331017;28;20514;-60
2022/03/13 14:36:02;;;;;;;10.73;9.82;;;;;;;26.33;11.15;99987.19;10339005;28;21139;-61
2022/03/13 14:41:04;;;;;;;11.02;9.77;;;;;;;25.16;12.05;99991.81;10333575;28;20058;-60
2022/03/13 14:46:08;;;;;;;;;;;;;;;23.81;13.17;100002.88;10333136;28;20695;-61
2022/03/13 14:51:12;;;;;;;11.88;10.88;;;;;;;23.07;13.92;99988.66;10333213;28;19929;-60
2022/03/13 14:56:13;;;;;;;12.23;11.02;;;;;;;22.55;14.05;99991.25;10345754;28;20057;-60
2022/03/13 15:01:15;;;;;;;11.93;10.75;;;;;;;22.41;14.42;99994.97;10332703;28;20062;-60
2022/03/13 15:06:17;;;;;;;12.33;10.90;;;;;;;22.04;14.64;99989.06;10333375;28;20153;-60
2022/03/13 15:11:18;;;;;;;11.73;10.73;;;;;;;21.42;14.98;99980.06;10330172;28;20220;-60
2022/03/13 15:16:20;;;;;;;11.63;10.43;;;;;;;21.19;15.66;99971.19;10332639;28;20467;-59
2022/03/13 15:21:22;;;;;;;12.85;11.57;;;;;;;20.69;15.96;99965.06;10334640;28;21533;-60
2022/03/13 15:26:23;;;;;;;13.15;11.85;;;;;;;20.09;16.37;99981.56;10329876;28;20053;-61
2022/03/13 15:31:25;;;;;;;12.70;11.50;;;;;;;19.87;16.94;99987.97;10329076;28;20499;-60
2022/03/13 15:36:26;;;;;;;13.38;12.00;;;;;;;19.78;17.29;99985.38;10333481;28;20175;-61
2022/03/13 15:41:28;;;;;;;13.30;12.02;;;;;;;19.53;17.11;99965.13;10330845;28;20128;-60
2022/03/13 15:46:29;;;;;;;12.23;11.02;;;;;;;19.46;17.10;99988.53;10333734;28;20069;-61
2022/03/13 15:51:31;;;;;;;12.90;11.02;;;;;;;19.19;17.83;99978.19;10333455;28;20053;-60
2022/03/13 15:56:33;;;;;;;13.13;11.80;;;;;;;19.11;17.70;99982.84;10329640;28;20332;-60
2022/03/13 16:01:35;;;;;;;11.25;10.25;;;;;;;18.96;17.82;99972.91;10326997;28;20069;-60
2022/03/13 16:06:38;;;;;;;11.95;10.75;;;;;;;18.73;18.02;99965.69;10330737;28;20062;-59
2022/03/13 16:11:39;;;;;;;11.20;10.13;;;;;;;18.33;18.25;99945.31;10332958;28;20187;-60
2022/03/13 16:16:41;;;;;;;12.02;10.90;;;;;;;18.07;18.61;99945.72;10339588;28;21292;-60
2022/03/13 16:21:42;;;;;;;12.07;10.82;;;;;;;17.89;18.91;99968.38;10335815;28;20053;-60
2022/03/13 16:26:46;;;;;;;13.35;11.95;;;;;;;17.63;19.18;99974.06;10335484;28;20396;-59
2022/03/13 16:31:47;;;;;;;11.75;10.63;;;;;;;17.60;19.33;99986.00;10339109;28;20049;-59
2022/03/13 16:36:49;;;;;;;11.93;10.82;;;;;;;17.17;19.25;99957.78;10335194;28;20056;-59
2022/03/13 16:41:50;;;;;;;12.25;10.93;;;;;;;17.26;19.85;99984.50;10327000;28;20228;-59
2022/03/13 16:46:52;;;;;;;13.18;11.77;;;;;;;17.26;20.42;99989.88;10344739;28;20060;-63
2022/03/13 16:51:54;;;;;;;13.82;11.70;;;;;;;17.17;20.08;99990.88;10344115;28;20619;-61
2022/03/13 16:56:56;;;;;;;14.43;12.88;;;;;;;17.00;20.55;99984.72;10345891;28;20083;-62
2022/03/13 17:01:57;;;;;;;14.82;13.43;;;;;;;16.81;20.64;100001.19;10344202;28;20045;-61
2022/03/13 17:07:00;;;;;;;12.63;11.23;;;;;;;16.37;21.51;99986.28;10345657;28;20053;-60
2022/03/13 17:12:02;;;;;;;13.77;12.43;;;;;;;16.26;21.83;100004.41;10337157;28;20049;-60
2022/03/13 17:17:04;;;;;;;12.88;11.55;;;;;;;15.91;21.77;100002.81;10341988;28;20053;-59
2022/03/13 17:28:28;;;;;;;13.23;11.85;;;;;;;15.70;22.28;100004.09;10336812;28;20077;-59
2022/03/13 17:33:29;;;;;;;12.52;11.27;;;;;;;15.65;22.06;100027.06;10345404;28;20370;-60
2022/03/13 17:38:30;;;;;;;13.65;12.32;;;;;;;15.46;22.47;100022.78;10341246;28;20049;-61
2022/03/13 17:43:32;;;;;;;13.18;11.90;;;;;;;15.40;22.58;100032.28;10343066;28;20061;-60
2022/03/13 17:48:34;;;;;;;13.90;12.48;;;;;;;15.50;22.67;100040.22;10341474;28;20045;-60
2022/03/13 17:53:35;;;;;;;13.02;11.75;;;;;;;15.46;22.55;100036.19;10343087;28;20071;-60
2022/03/13 17:58:37;;;;;;;18.40;12.98;;;;;;;15.30;22.50;100028.91;10348449;28;20092;-61
2022/03/13 18:03:38;;;;;;;14.05;12.65;;;;;;;15.25;23.11;100033.91;10349762;28;20141;-60
2022/03/13 18:08:39;;;;;;;13.00;11.65;;;;;;;15.33;22.95;100056.25;10356073;28;20054;-61
2022/03/13 18:13:41;;;;;;;13.02;11.57;;;;;;;15.25;23.26;100053.50;10351756;28;20065;-61
2022/03/13 18:18:42;;;;;;;13.13;11.80;;;;;;;15.26;23.09;100057.88;10338614;28;20628;-61
2022/03/13 18:23:45;;;;;;;13.70;12.30;;;;;;;15.17;23.39;100066.88;10342843;28;20052;-59
2022/03/13 18:28:46;;;;;;;14.95;13.35;;;;;;;15.08;23.51;100074.00;10342999;28;20049;-62
2022/03/13 18:33:47;;;;;;;13.98;12.57;;;;;;;15.00;23.47;100060.56;10342285;28;20045;-59
2022/03/13 18:38:49;;;;;;;14.75;12.68;;;;;;;14.85;23.60;100074.53;10338256;28;20718;-61
2022/03/13 18:43:50;;;;;;;14.88;13.48;;;;;;;14.82;23.56;100074.84;10340280;28;20046;-59
2022/03/13 18:48:56;;;;;;;16.23;14.40;;;;;;;14.71;24.05;100077.75;10336766;28;20050;-60
2022/03/13 18:53:57;;;;;;;15.20;13.65;;;;;;;14.53;24.18;100072.38;10342059;28;20055;-61
2022/03/13 18:58:59;;;;;;;16.45;14.20;;;;;;;14.50;24.43;100076.22;10336052;28;20045;-61
2022/03/13 19:04:01;;;;;;;16.40;14.05;;;;;;;14.39;24.24;100086.31;10342489;28;20049;-59
2022/03/13 19:09:03;;;;;;;14.65;13.15;;;;;;;14.29;24.77;100083.69;10340156;28;20072;-62
2022/03/13 19:14:06;;;;;;;16.75;14.95;;;;;;;14.22;24.53;100077.28;10341650;28;20378;-59
2022/03/13 19:19:11;;;;;;;13.70;12.15;;;;;;;14.08;24.56;100079.47;10345261;28;20049;-60
2022/03/13 19:24:13;;;;;;;12.60;11.25;;;;;;;13.99;24.61;100084.88;10344665;28;20606;-60
2022/03/13 19:29:14;;;;;;;11.52;10.43;;;;;;;13.95;25.16;100103.06;10342936;28;20064;-60
2022/03/13 19:34:16;;;;;;;12.18;10.70;;;;;;;13.89;24.81;100104.50;10353202;28;20060;-60
2022/03/13 19:39:17;;;;;;;12.18;10.18;;;;;;;13.80;24.66;100100.06;10354082;28;20049;-59
2022/03/13 19:44:19;;;;;;;13.45;10.05;;;;;;;13.81;24.62;100099.06;10336549;28;20842;-60
2022/03/13 19:49:20;;;;;;;12.85;11.43;;;;;;;13.78;24.79;100105.56;10336068;28;20115;-59
2022/03/13 19:54:22;;;;;;;12.63;11.32;;;;;;;13.64;24.32;100099.84;10337882;28;20061;-63
2022/03/13 19:59:24;;;;;;;12.82;10.88;;;;;;;13.57;24.49;100104.91;10336923;28;20077;-61
2022/03/13 20:04:32;;;;;;;12.32;11.13;;;;;;;13.59;24.67;100113.66;10335999;28;20129;-60
2022/03/13 20:09:36;;;;;;;12.45;11.15;;;;;;;13.46;24.70;100119.31;10336683;28;20146;-60
2022/03/13 20:14:37;;;;;;;10.63;9.50;;;;;;;13.39;24.74;100108.38;10334356;28;20058;-60
2022/03/13 20:19:39;;;;;;;12.52;11.25;;;;;;;13.43;25.04;100119.59;10344189;28;20523;-60
2022/03/13 20:24:41;;;;;;;14.88;13.27;;;;;;;13.39;24.87;100121.75;10345621;28;22335;-60
2022/03/13 20:29:42;;;;;;;15.23;12.98;;;;;;;13.25;24.98;100111.47;10343450;28;20051;-60
2022/03/13 20:34:44;;;;;;;14.05;12.18;;;;;;;13.30;24.82;100138.63;10344599;28;20048;-59
2022/03/13 20:39:46;;;;;;;12.52;11.23;;;;;;;13.16;25.27;100131.88;10343702;28;20046;-59
2022/03/13 20:44:47;;;;;;;14.38;12.88;;;;;;;13.14;25.34;100135.69;10344947;28;20042;-59
2022/03/13 20:49:49;;;;;;;12.50;11.25;;;;;;;13.02;25.51;100138.50;10340798;28;20056;-58
2022/03/13 20:54:51;;;;;;;12.45;11.23;;;;;;;13.13;25.55;100155.38;10341226;28;20057;-59
2022/03/13 20:59:52;;;;;;;13.38;11.07;;;;;;;13.05;25.48;100164.94;10342131;28;20045;-59
2022/03/13 21:04:54;;;;;;;11.40;10.20;;;;;;;13.06;25.91;100176.47;10343982;28;20563;-59
2022/03/13 21:09:55;;;;;;;12.10;10.80;;;;;;;13.01;25.50;100158.19;10344976;28;20423;-59
2022/03/13 21:14:56;;;;;;;12.18;10.93;;;;;;;13.01;25.32;100174.22;10348578;28;20140;-63
2022/03/13 21:19:58;;;;;;;12.38;11.07;;;;;;;12.79;25.72;100158.47;10346419;28;20068;-62
2022/03/13 21:25:00;;;;;;;12.95;11.45;;;;;;;12.93;25.89;100190.13;10343104;28;20045;-60
2022/03/13 21:30:01;;;;;;;12.60;11.30;;;;;;;12.87;25.99;100188.84;10335331;28;20064;-58
2022/03/13 21:35:04;;;;;;;12.60;11.40;;;;;;;12.86;25.75;100194.34;10338891;28;20741;-59
2022/03/13 21:40:09;;;;;;;12.57;11.32;;;;;;;12.78;26.09;100183.53;10341172;28;20122;-61
2022/03/13 21:45:13;;;;;;;12.90;10.50;;;;;;;12.75;25.99;100192.66;10343580;28;20041;-60
2022/03/13 21:50:15;;;;;;;12.82;11.45;;;;;;;12.75;26.09;100194.47;10332538;28;20152;-58
2022/03/13 21:55:17;;;;;;;12.57;11.27;;;;;;;12.69;26.01;100186.03;10337305;28;20145;-58
2022/03/13 22:00:18;;;;;;;13.00;10.93;;;;;;;12.64;26.04;100193.63;10337749;28;20057;-58
2022/03/13 22:05:21;;;;;;;11.95;10.70;;;;;;;12.70;26.42;100209.09;10344364;28;20053;-58
2022/03/13 22:10:22;;;;;;;12.13;10.93;;;;;;;12.60;26.11;100181.53;10335705;28;20503;-58
2022/03/13 22:15:26;;;;;;;13.00;10.60;;;;;;;12.71;26.16;100199.25;10338916;28;20041;-57
2022/03/13 22:20:27;;;;;;;11.68;10.48;;;;;;;12.65;26.25;100189.94;10339843;28;20054;-58
2022/03/13 22:25:29;;;;;;;11.88;10.68;;;;;;;12.72;26.06;100200.94;10341575;28;20064;-58
2022/03/13 22:30:31;;;;;;;11.70;10.52;;;;;;;12.72;26.20;100212.44;10339149;28;20061;-59
2022/03/13 22:35:33;;;;;;;11.77;10.57;;;;;;;12.59;25.89;100195.00;10330966;28;20141;-57
2022/03/13 22:40:35;;;;;;;10.52;9.38;;;;;;;12.65;26.11;100205.97;10336285;28;20087;-58
2022/03/13 22:45:36;;;;;;;13.80;10.30;;;;;;;12.66;26.37;100221.03;10339650;28;20479;-60
2022/03/13 22:55:57;;;;;;;12.43;11.10;;;;;;;12.61;26.39;100220.59;10341021;28;20129;-60
2022/03/13 23:01:02;;;;;;;11.52;10.43;;;;;;;12.58;26.43;100220.88;10355086;28;20046;-60
2022/03/13 23:06:05;;;;;;;11.32;10.27;;;;;;;12.54;26.29;100224.78;10353185;28;20049;-60
2022/03/13 23:11:06;;;;;;;12.10;10.80;;;;;;;12.54;26.34;100235.47;10354723;28;20132;-60
2022/03/13 23:16:11;;;;;;;11.63;9.48;;;;;;;12.39;26.72;100216.31;10352915;28;20431;-60
2022/03/13 23:21:15;;;;;;;12.10;11.00;;;;;;;12.49;26.51;100235.03;10356001;28;20081;-61